sensor_id;sensor_type;location;lat;lon;timestamp;temperature;humidity
24207;DHT22;12351;52.284;9.160;2023-06-10T00:00:33;20.50;1.00
24207;DHT22;12351;52.284;9.160;2023-06-10T00:03:21;20.50;1.00
24207;DHT22;12351;52.284;9.160;2023-06-10T00:06:09;20.50;1.00
24207;DHT22;12351;52.284;9.160;2023-06-10T00:08:59;20.50;1.00
24207;DHT22;12351;52.284;9.160;2023-06-10T00:11:47;20.50;1.00
24207;DHT22;12351;52.284;9.160;2023-06-10T00:14:37;20.40;1.00
24207;DHT22;12351;52.284;9.160;2023-06-10T00:17:26;20.40;1.00
24207;DHT22;12351;52.284;9.160;2023-06-10T00:20:18;20.40;1.00
24207;DHT22;12351;52.284;9.160;2023-06-10T00:23:04;20.40;1.00
24207;DHT22;12351;52.284;9.160;2023-06-10T00:25:55;20.20;1.00
24207;DHT22;12351;52.284;9.160;2023-06-10T00:28:45;20.20;1.00
24207;DHT22;12351;52.284;9.160;2023-06-10T00:31:36;20.10;1.00
24207;DHT22;12351;52.284;9.160;2023-06-10T00:34:27;20.00;1.00
24207;DHT22;12351;52.284;9.160;2023-06-10T00:37:17;20.00;1.00
24207;DHT22;12351;52.284;9.160;2023-06-10T00:40:05;20.00;1.00
24207;DHT22;12351;52.284;9.160;2023-06-10T00:42:57;20.00;1.00
24207;DHT22;12351;52.284;9.160;2023-06-10T00:45:45;19.90;1.00
24207;DHT22;12351;52.284;9.160;2023-06-10T00:48:34;19.90;1.00
24207;DHT22;12351;52.284;9.160;2023-06-10T00:51:26;19.80;1.00
24207;DHT22;12351;52.284;9.160;2023-06-10T00:54:14;19.70;1.00
24207;DHT22;12351;52.284;9.160;2023-06-10T00:57:02;19.60;1.00
24207;DHT22;12351;52.284;9.160;2023-06-10T00:59:49;19.60;1.00
24207;DHT22;12351;52.284;9.160;2023-06-10T01:02:37;19.60;1.00
24207;DHT22;12351;52.284;9.160;2023-06-10T01:05:25;19.50;1.00
24207;DHT22;12351;52.284;9.160;2023-06-10T01:08:19;19.50;1.00
24207;DHT22;12351;52.284;9.160;2023-06-10T01:11:14;19.40;1.00
24207;DHT22;12351;52.284;9.160;2023-06-10T01:14:00;19.40;1.00
24207;DHT22;12351;52.284;9.160;2023-06-10T01:16:49;19.30;1.00
24207;DHT22;12351;52.284;9.160;2023-06-10T01:19:41;19.20;1.00
24207;DHT22;12351;52.284;9.160;2023-06-10T01:22:32;19.20;1.00
24207;DHT22;12351;52.284;9.160;2023-06-10T01:25:22;19.10;1.00
24207;DHT22;12351;52.284;9.160;2023-06-10T01:28:14;19.10;1.00
24207;DHT22;12351;52.284;9.160;2023-06-10T01:33:56;18.90;1.00
24207;DHT22;12351;52.284;9.160;2023-06-10T01:36:45;18.90;1.00
24207;DHT22;12351;52.284;9.160;2023-06-10T01:39:33;18.90;1.00
24207;DHT22;12351;52.284;9.160;2023-06-10T01:42:25;18.90;1.00
24207;DHT22;12351;52.284;9.160;2023-06-10T01:45:17;18.80;1.00
24207;DHT22;12351;52.284;9.160;2023-06-10T01:48:08;18.80;1.00
24207;DHT22;12351;52.284;9.160;2023-06-10T01:50:58;18.70;1.00
24207;DHT22;12351;52.284;9.160;2023-06-10T01:53:49;18.70;1.00
24207;DHT22;12351;52.284;9.160;2023-06-10T01:56:39;18.60;1.00
24207;DHT22;12351;52.284;9.160;2023-06-10T01:59:27;18.60;1.00
24207;DHT22;12351;52.284;9.160;2023-06-10T02:02:15;18.60;1.00
24207;DHT22;12351;52.284;9.160;2023-06-10T02:05:04;18.60;1.00
24207;DHT22;12351;52.284;9.160;2023-06-10T02:07:59;18.60;1.00
24207;DHT22;12351;52.284;9.160;2023-06-10T02:10:48;18.50;1.00
24207;DHT22;12351;52.284;9.160;2023-06-10T02:13:39;18.40;1.00
24207;DHT22;12351;52.284;9.160;2023-06-10T02:16:31;18.40;1.00
24207;DHT22;12351;52.284;9.160;2023-06-10T02:19:19;18.30;1.00
24207;DHT22;12351;52.284;9.160;2023-06-10T02:22:09;18.30;1.00
24207;DHT22;12351;52.284;9.160;2023-06-10T02:25:00;18.20;1.00
24207;DHT22;12351;52.284;9.160;2023-06-10T02:27:52;18.10;1.00
24207;DHT22;12351;52.284;9.160;2023-06-10T02:30:40;18.00;1.00
24207;DHT22;12351;52.284;9.160;2023-06-10T02:33:30;18.00;1.00
24207;DHT22;12351;52.284;9.160;2023-06-10T02:36:25;17.90;1.00
24207;DHT22;12351;52.284;9.160;2023-06-10T02:39:16;17.80;1.00
24207;DHT22;12351;52.284;9.160;2023-06-10T02:42:05;17.80;1.00
24207;DHT22;12351;52.284;9.160;2023-06-10T02:44:57;17.70;1.00
24207;DHT22;12351;52.284;9.160;2023-06-10T02:47:49;17.60;1.00
24207;DHT22;12351;52.284;9.160;2023-06-10T02:50:38;17.60;1.00
24207;DHT22;12351;52.284;9.160;2023-06-10T02:53:28;17.50;1.00
24207;DHT22;12351;52.284;9.160;2023-06-10T02:56:20;17.50;1.00
24207;DHT22;12351;52.284;9.160;2023-06-10T02:59:12;17.40;1.00
24207;DHT22;12351;52.284;9.160;2023-06-10T03:02:02;17.30;1.00
24207;DHT22;12351;52.284;9.160;2023-06-10T03:04:51;17.20;1.00
24207;DHT22;12351;52.284;9.160;2023-06-10T03:07:40;17.20;1.00
24207;DHT22;12351;52.284;9.160;2023-06-10T03:10:30;17.10;1.00
24207;DHT22;12351;52.284;9.160;2023-06-10T03:13:19;17.10;1.00
24207;DHT22;12351;52.284;9.160;2023-06-10T03:16:08;17.10;1.00
24207;DHT22;12351;52.284;9.160;2023-06-10T03:18:57;17.00;1.00
24207;DHT22;12351;52.284;9.160;2023-06-10T03:21:48;17.00;1.00
24207;DHT22;12351;52.284;9.160;2023-06-10T03:24:38;16.90;1.00
24207;DHT22;12351;52.284;9.160;2023-06-10T03:27:28;16.90;1.00
24207;DHT22;12351;52.284;9.160;2023-06-10T03:30:19;16.90;1.00
24207;DHT22;12351;52.284;9.160;2023-06-10T03:33:08;17.10;1.00
24207;DHT22;12351;52.284;9.160;2023-06-10T03:36:00;17.40;1.00
24207;DHT22;12351;52.284;9.160;2023-06-10T03:38:52;18.10;1.00
24207;DHT22;12351;52.284;9.160;2023-06-10T03:41:43;18.50;1.00
24207;DHT22;12351;52.284;9.160;2023-06-10T03:44:31;18.00;1.00
24207;DHT22;12351;52.284;9.160;2023-06-10T03:47:21;17.50;1.00
24207;DHT22;12351;52.284;9.160;2023-06-10T03:50:11;17.20;1.00
24207;DHT22;12351;52.284;9.160;2023-06-10T03:53:01;17.20;1.00
24207;DHT22;12351;52.284;9.160;2023-06-10T03:55:49;17.10;99.90
24207;DHT22;12351;52.284;9.160;2023-06-10T03:58:39;17.10;99.90
24207;DHT22;12351;52.284;9.160;2023-06-10T04:01:30;17.10;99.90
24207;DHT22;12351;52.284;9.160;2023-06-10T04:04:19;17.10;1.00
24207;DHT22;12351;52.284;9.160;2023-06-10T04:07:10;17.10;42.00
24207;DHT22;12351;52.284;9.160;2023-06-10T04:09:59;17.10;1.00
24207;DHT22;12351;52.284;9.160;2023-06-10T04:12:49;17.10;3.20
24207;DHT22;12351;52.284;9.160;2023-06-10T04:15:39;17.10;99.90
24207;DHT22;12351;52.284;9.160;2023-06-10T04:18:29;17.10;1.00
24207;DHT22;12351;52.284;9.160;2023-06-10T04:21:20;17.10;99.90
24207;DHT22;12351;52.284;9.160;2023-06-10T04:24:09;17.10;1.00
24207;DHT22;12351;52.284;9.160;2023-06-10T04:27:00;17.10;1.00
24207;DHT22;12351;52.284;9.160;2023-06-10T04:29:52;17.10;99.90
24207;DHT22;12351;52.284;9.160;2023-06-10T04:32:44;17.10;1.00
24207;DHT22;12351;52.284;9.160;2023-06-10T04:35:33;17.20;1.00
24207;DHT22;12351;52.284;9.160;2023-06-10T04:38:25;17.20;46.60
24207;DHT22;12351;52.284;9.160;2023-06-10T04:41:17;17.20;99.90
24207;DHT22;12351;52.284;9.160;2023-06-10T04:44:08;17.20;99.90
24207;DHT22;12351;52.284;9.160;2023-06-10T04:46:59;17.30;1.00
24207;DHT22;12351;52.284;9.160;2023-06-10T04:49:48;17.30;1.00
24207;DHT22;12351;52.284;9.160;2023-06-10T04:52:39;17.40;1.00
24207;DHT22;12351;52.284;9.160;2023-06-10T04:55:30;17.30;1.00
24207;DHT22;12351;52.284;9.160;2023-06-10T04:58:21;17.40;1.30
24207;DHT22;12351;52.284;9.160;2023-06-10T05:01:12;17.40;20.80
24207;DHT22;12351;52.284;9.160;2023-06-10T05:04:02;17.40;71.30
24207;DHT22;12351;52.284;9.160;2023-06-10T05:06:54;17.40;99.90
24207;DHT22;12351;52.284;9.160;2023-06-10T05:09:46;17.20;99.90
24207;DHT22;12351;52.284;9.160;2023-06-10T05:12:34;17.30;99.90
24207;DHT22;12351;52.284;9.160;2023-06-10T05:15:22;17.50;99.90
24207;DHT22;12351;52.284;9.160;2023-06-10T05:18:12;17.60;99.90
24207;DHT22;12351;52.284;9.160;2023-06-10T05:21:03;17.70;99.90
24207;DHT22;12351;52.284;9.160;2023-06-10T05:23:52;17.70;99.90
24207;DHT22;12351;52.284;9.160;2023-06-10T05:26:44;17.80;99.90
24207;DHT22;12351;52.284;9.160;2023-06-10T05:29:34;17.90;99.90
24207;DHT22;12351;52.284;9.160;2023-06-10T05:32:25;17.90;99.90
24207;DHT22;12351;52.284;9.160;2023-06-10T05:35:17;17.70;99.90
24207;DHT22;12351;52.284;9.160;2023-06-10T05:38:09;17.90;99.90
24207;DHT22;12351;52.284;9.160;2023-06-10T05:41:00;18.10;99.90
24207;DHT22;12351;52.284;9.160;2023-06-10T05:43:53;18.10;99.90
24207;DHT22;12351;52.284;9.160;2023-06-10T05:46:40;18.20;99.90
24207;DHT22;12351;52.284;9.160;2023-06-10T05:49:28;18.30;99.90
24207;DHT22;12351;52.284;9.160;2023-06-10T05:52:17;18.50;57.70
24207;DHT22;12351;52.284;9.160;2023-06-10T05:55:08;18.60;59.40
24207;DHT22;12351;52.284;9.160;2023-06-10T05:57:58;18.60;1.00
24207;DHT22;12351;52.284;9.160;2023-06-10T06:00:49;18.60;1.00
24207;DHT22;12351;52.284;9.160;2023-06-10T06:03:38;18.70;1.00
24207;DHT22;12351;52.284;9.160;2023-06-10T06:06:31;18.80;1.00
24207;DHT22;12351;52.284;9.160;2023-06-10T06:09:18;18.70;1.00
24207;DHT22;12351;52.284;9.160;2023-06-10T06:12:06;18.50;99.90
24207;DHT22;12351;52.284;9.160;2023-06-10T06:14:57;18.60;63.10
24207;DHT22;12351;52.284;9.160;2023-06-10T06:17:47;18.70;23.00
24207;DHT22;12351;52.284;9.160;2023-06-10T06:20:38;18.80;1.00
24207;DHT22;12351;52.284;9.160;2023-06-10T06:23:27;19.00;1.00
24207;DHT22;12351;52.284;9.160;2023-06-10T06:26:17;19.10;1.00
24207;DHT22;12351;52.284;9.160;2023-06-10T06:29:08;18.90;1.00
24207;DHT22;12351;52.284;9.160;2023-06-10T06:32:00;19.00;1.00
24207;DHT22;12351;52.284;9.160;2023-06-10T06:34:50;19.10;1.00
24207;DHT22;12351;52.284;9.160;2023-06-10T06:37:38;18.90;1.00
24207;DHT22;12351;52.284;9.160;2023-06-10T06:40:27;19.00;1.00
24207;DHT22;12351;52.284;9.160;2023-06-10T06:43:16;18.80;8.40
24207;DHT22;12351;52.284;9.160;2023-06-10T06:46:06;18.90;1.00
24207;DHT22;12351;52.284;9.160;2023-06-10T06:48:59;19.00;1.00
24207;DHT22;12351;52.284;9.160;2023-06-10T06:51:51;18.80;1.00
24207;DHT22;12351;52.284;9.160;2023-06-10T06:54:40;18.90;1.00
24207;DHT22;12351;52.284;9.160;2023-06-10T06:57:33;18.70;1.00
24207;DHT22;12351;52.284;9.160;2023-06-10T07:00:22;19.00;1.00
24207;DHT22;12351;52.284;9.160;2023-06-10T07:03:14;18.50;99.90
24207;DHT22;12351;52.284;9.160;2023-06-10T07:06:04;18.50;99.90
24207;DHT22;12351;52.284;9.160;2023-06-10T07:08:54;18.40;99.90
24207;DHT22;12351;52.284;9.160;2023-06-10T07:11:43;18.40;99.90
24207;DHT22;12351;52.284;9.160;2023-06-10T07:14:34;18.50;99.90
24207;DHT22;12351;52.284;9.160;2023-06-10T07:17:22;18.30;99.90
24207;DHT22;12351;52.284;9.160;2023-06-10T07:20:15;18.50;99.90
24207;DHT22;12351;52.284;9.160;2023-06-10T07:23:06;18.50;99.90
24207;DHT22;12351;52.284;9.160;2023-06-10T07:25:58;18.80;99.90
24207;DHT22;12351;52.284;9.160;2023-06-10T07:28:47;18.90;99.90
24207;DHT22;12351;52.284;9.160;2023-06-10T07:31:39;18.90;99.90
24207;DHT22;12351;52.284;9.160;2023-06-10T07:34:29;19.00;99.90
24207;DHT22;12351;52.284;9.160;2023-06-10T07:37:18;19.00;1.00
24207;DHT22;12351;52.284;9.160;2023-06-10T07:40:10;18.70;99.60
24207;DHT22;12351;52.284;9.160;2023-06-10T07:42:58;18.80;27.00
24207;DHT22;12351;52.284;9.160;2023-06-10T07:45:48;18.90;1.00
24207;DHT22;12351;52.284;9.160;2023-06-10T07:48:35;18.70;35.50
24207;DHT22;12351;52.284;9.160;2023-06-10T07:54:14;19.00;1.00
24207;DHT22;12351;52.284;9.160;2023-06-10T07:57:02;19.10;1.00
24207;DHT22;12351;52.284;9.160;2023-06-10T07:59:50;19.10;19.00
24207;DHT22;12351;52.284;9.160;2023-06-10T08:02:42;19.00;99.90
24207;DHT22;12351;52.284;9.160;2023-06-10T08:05:31;19.10;99.90
24207;DHT22;12351;52.284;9.160;2023-06-10T08:08:23;19.30;99.90
24207;DHT22;12351;52.284;9.160;2023-06-10T08:11:15;19.30;99.90
24207;DHT22;12351;52.284;9.160;2023-06-10T08:14:06;19.30;99.90
24207;DHT22;12351;52.284;9.160;2023-06-10T08:16:55;19.30;99.90
24207;DHT22;12351;52.284;9.160;2023-06-10T08:19:42;19.40;99.90
24207;DHT22;12351;52.284;9.160;2023-06-10T08:22:32;19.10;99.90
24207;DHT22;12351;52.284;9.160;2023-06-10T08:25:20;19.30;1.00
24207;DHT22;12351;52.284;9.160;2023-06-10T08:28:09;19.50;73.60
24207;DHT22;12351;52.284;9.160;2023-06-10T08:30:57;19.50;1.00
24207;DHT22;12351;52.284;9.160;2023-06-10T08:33:47;19.50;1.00
24207;DHT22;12351;52.284;9.160;2023-06-10T08:36:36;19.90;1.00
24207;DHT22;12351;52.284;9.160;2023-06-10T08:39:26;19.60;99.90
24207;DHT22;12351;52.284;9.160;2023-06-10T08:45:11;19.80;99.90
24207;DHT22;12351;52.284;9.160;2023-06-10T08:48:00;20.00;1.00
24207;DHT22;12351;52.284;9.160;2023-06-10T08:50:54;20.00;99.90
24207;DHT22;12351;52.284;9.160;2023-06-10T08:56:35;20.20;1.00
24207;DHT22;12351;52.284;9.160;2023-06-10T08:59:25;20.40;47.00
24207;DHT22;12351;52.284;9.160;2023-06-10T09:02:15;20.30;1.00
24207;DHT22;12351;52.284;9.160;2023-06-10T09:05:07;20.20;1.00
24207;DHT22;12351;52.284;9.160;2023-06-10T09:07:57;20.40;99.90
24207;DHT22;12351;52.284;9.160;2023-06-10T09:10:47;20.60;1.00
24207;DHT22;12351;52.284;9.160;2023-06-10T09:13:36;20.60;83.60
24207;DHT22;12351;52.284;9.160;2023-06-10T09:16:26;20.70;95.00
24207;DHT22;12351;52.284;9.160;2023-06-10T09:19:19;20.60;99.90
24207;DHT22;12351;52.284;9.160;2023-06-10T09:22:08;21.00;99.90
24207;DHT22;12351;52.284;9.160;2023-06-10T09:27:51;21.30;1.00
24207;DHT22;12351;52.284;9.160;2023-06-10T09:30:41;21.30;1.00
24207;DHT22;12351;52.284;9.160;2023-06-10T09:33:32;21.40;99.90
24207;DHT22;12351;52.284;9.160;2023-06-10T09:36:27;21.20;28.00
24207;DHT22;12351;52.284;9.160;2023-06-10T09:39:20;21.30;1.00
24207;DHT22;12351;52.284;9.160;2023-06-10T09:45:01;21.60;99.90
24207;DHT22;12351;52.284;9.160;2023-06-10T09:47:52;21.60;1.00
24207;DHT22;12351;52.284;9.160;2023-06-10T09:50:42;21.60;1.00
24207;DHT22;12351;52.284;9.160;2023-06-10T09:53:33;21.60;99.90
24207;DHT22;12351;52.284;9.160;2023-06-10T09:56:25;21.70;99.90
24207;DHT22;12351;52.284;9.160;2023-06-10T09:59:11;21.90;80.00
24207;DHT22;12351;52.284;9.160;2023-06-10T10:01:59;22.20;41.80
24207;DHT22;12351;52.284;9.160;2023-06-10T10:04:50;22.30;3.60
24207;DHT22;12351;52.284;9.160;2023-06-10T10:07:41;22.40;1.00
24207;DHT22;12351;52.284;9.160;2023-06-10T10:10:27;22.40;1.00
24207;DHT22;12351;52.284;9.160;2023-06-10T10:13:15;22.60;1.00
24207;DHT22;12351;52.284;9.160;2023-06-10T10:16:06;22.40;99.90
24207;DHT22;12351;52.284;9.160;2023-06-10T10:18:54;22.50;99.90
24207;DHT22;12351;52.284;9.160;2023-06-10T10:21:44;22.70;47.90
24207;DHT22;12351;52.284;9.160;2023-06-10T10:24:33;22.50;1.00
24207;DHT22;12351;52.284;9.160;2023-06-10T10:27:26;22.70;1.00
24207;DHT22;12351;52.284;9.160;2023-06-10T10:30:14;22.90;1.00
24207;DHT22;12351;52.284;9.160;2023-06-10T10:33:04;23.00;1.00
24207;DHT22;12351;52.284;9.160;2023-06-10T10:35:51;23.00;1.00
24207;DHT22;12351;52.284;9.160;2023-06-10T10:38:40;23.00;1.00
24207;DHT22;12351;52.284;9.160;2023-06-10T10:41:32;23.00;1.00
24207;DHT22;12351;52.284;9.160;2023-06-10T10:44:23;23.30;1.00
24207;DHT22;12351;52.284;9.160;2023-06-10T10:47:14;23.40;1.00
24207;DHT22;12351;52.284;9.160;2023-06-10T10:50:03;23.50;1.00
24207;DHT22;12351;52.284;9.160;2023-06-10T10:55:33;23.70;1.00
24207;DHT22;12351;52.284;9.160;2023-06-10T10:58:24;23.90;1.00
24207;DHT22;12351;52.284;9.160;2023-06-10T11:01:14;23.70;1.00
24207;DHT22;12351;52.284;9.160;2023-06-10T11:04:02;23.50;1.00
24207;DHT22;12351;52.284;9.160;2023-06-10T11:06:53;23.70;1.00
24207;DHT22;12351;52.284;9.160;2023-06-10T11:09:56;23.90;1.00
24207;DHT22;12351;52.284;9.160;2023-06-10T11:15:26;24.00;1.00
24207;DHT22;12351;52.284;9.160;2023-06-10T11:18:18;24.00;1.00
24207;DHT22;12351;52.284;9.160;2023-06-10T11:21:04;23.70;1.00
24207;DHT22;12351;52.284;9.160;2023-06-10T11:23:57;24.00;1.00
24207;DHT22;12351;52.284;9.160;2023-06-10T11:26:46;24.10;1.00
24207;DHT22;12351;52.284;9.160;2023-06-10T11:29:36;24.30;1.00
24207;DHT22;12351;52.284;9.160;2023-06-10T11:32:29;24.30;1.00
24207;DHT22;12351;52.284;9.160;2023-06-10T11:35:18;24.50;1.00
24207;DHT22;12351;52.284;9.160;2023-06-10T11:38:07;24.50;1.00
24207;DHT22;12351;52.284;9.160;2023-06-10T11:40:58;24.40;1.00
24207;DHT22;12351;52.284;9.160;2023-06-10T11:43:48;24.40;1.00
24207;DHT22;12351;52.284;9.160;2023-06-10T11:46:39;24.50;1.00
24207;DHT22;12351;52.284;9.160;2023-06-10T11:49:26;24.70;1.00
24207;DHT22;12351;52.284;9.160;2023-06-10T11:52:14;24.90;1.00
24207;DHT22;12351;52.284;9.160;2023-06-10T11:55:01;24.90;1.00
24207;DHT22;12351;52.284;9.160;2023-06-10T11:57:50;24.80;1.00
24207;DHT22;12351;52.284;9.160;2023-06-10T12:00:48;23.60;2.80
24207;DHT22;12351;52.284;9.160;2023-06-10T12:06:18;23.90;43.30
24207;DHT22;12351;52.284;9.160;2023-06-10T12:09:12;24.20;1.00
24207;DHT22;12351;52.284;9.160;2023-06-10T12:11:58;24.40;1.00
24207;DHT22;12351;52.284;9.160;2023-06-10T12:17:42;24.30;1.00
24207;DHT22;12351;52.284;9.160;2023-06-10T12:20:30;23.60;99.90
24207;DHT22;12351;52.284;9.160;2023-06-10T12:23:20;24.30;99.90
24207;DHT22;12351;52.284;9.160;2023-06-10T12:26:08;24.70;25.40
24207;DHT22;12351;52.284;9.160;2023-06-10T12:28:57;25.00;99.90
24207;DHT22;12351;52.284;9.160;2023-06-10T12:34:37;25.00;1.00
24207;DHT22;12351;52.284;9.160;2023-06-10T12:37:29;25.10;1.00
24207;DHT22;12351;52.284;9.160;2023-06-10T12:40:16;25.50;1.00
24207;DHT22;12351;52.284;9.160;2023-06-10T12:43:03;25.60;1.00
24207;DHT22;12351;52.284;9.160;2023-06-10T12:45:52;25.60;1.00
24207;DHT22;12351;52.284;9.160;2023-06-10T12:51:33;25.30;1.00
24207;DHT22;12351;52.284;9.160;2023-06-10T12:54:24;25.60;1.00
24207;DHT22;12351;52.284;9.160;2023-06-10T12:57:15;25.90;1.00
24207;DHT22;12351;52.284;9.160;2023-06-10T13:00:02;26.00;1.00
24207;DHT22;12351;52.284;9.160;2023-06-10T13:02:51;26.10;1.00
24207;DHT22;12351;52.284;9.160;2023-06-10T13:05:40;26.20;1.00
24207;DHT22;12351;52.284;9.160;2023-06-10T13:08:32;26.30;1.00
24207;DHT22;12351;52.284;9.160;2023-06-10T13:11:18;26.30;1.00
24207;DHT22;12351;52.284;9.160;2023-06-10T13:14:05;26.30;1.00
24207;DHT22;12351;52.284;9.160;2023-06-10T13:16:52;26.30;1.00
24207;DHT22;12351;52.284;9.160;2023-06-10T13:19:41;26.30;1.00
24207;DHT22;12351;52.284;9.160;2023-06-10T13:22:33;26.30;1.00
24207;DHT22;12351;52.284;9.160;2023-06-10T13:25:21;26.50;1.00
24207;DHT22;12351;52.284;9.160;2023-06-10T13:28:11;26.70;1.00
24207;DHT22;12351;52.284;9.160;2023-06-10T13:30:58;26.80;1.00
24207;DHT22;12351;52.284;9.160;2023-06-10T13:33:46;26.80;1.00
24207;DHT22;12351;52.284;9.160;2023-06-10T13:36:36;27.00;1.00
24207;DHT22;12351;52.284;9.160;2023-06-10T13:39:23;27.10;1.00
24207;DHT22;12351;52.284;9.160;2023-06-10T13:42:10;27.20;1.00
24207;DHT22;12351;52.284;9.160;2023-06-10T13:44:58;27.00;1.00
24207;DHT22;12351;52.284;9.160;2023-06-10T13:47:45;27.00;1.00
24207;DHT22;12351;52.284;9.160;2023-06-10T13:50:33;27.10;1.00
24207;DHT22;12351;52.284;9.160;2023-06-10T13:53:19;27.20;1.00
24207;DHT22;12351;52.284;9.160;2023-06-10T13:56:06;27.30;1.00
24207;DHT22;12351;52.284;9.160;2023-06-10T13:58:56;27.40;1.00
24207;DHT22;12351;52.284;9.160;2023-06-10T14:01:43;27.30;1.00
24207;DHT22;12351;52.284;9.160;2023-06-10T14:04:30;27.40;1.00
24207;DHT22;12351;52.284;9.160;2023-06-10T14:07:18;27.50;1.00
24207;DHT22;12351;52.284;9.160;2023-06-10T14:10:06;27.60;1.00
24207;DHT22;12351;52.284;9.160;2023-06-10T14:12:55;27.80;1.00
24207;DHT22;12351;52.284;9.160;2023-06-10T14:15:43;27.80;1.00
24207;DHT22;12351;52.284;9.160;2023-06-10T14:18:32;27.80;1.00
24207;DHT22;12351;52.284;9.160;2023-06-10T14:21:19;27.80;1.00
24207;DHT22;12351;52.284;9.160;2023-06-10T14:24:06;27.80;1.00
24207;DHT22;12351;52.284;9.160;2023-06-10T14:26:57;27.80;1.00
24207;DHT22;12351;52.284;9.160;2023-06-10T14:29:46;28.00;1.00
24207;DHT22;12351;52.284;9.160;2023-06-10T14:32:34;28.00;1.00
24207;DHT22;12351;52.284;9.160;2023-06-10T14:35:23;27.90;1.00
24207;DHT22;12351;52.284;9.160;2023-06-10T14:38:12;27.90;1.00
24207;DHT22;12351;52.284;9.160;2023-06-10T14:41:00;27.70;1.00
24207;DHT22;12351;52.284;9.160;2023-06-10T14:43:52;27.90;1.00
24207;DHT22;12351;52.284;9.160;2023-06-10T14:46:39;28.10;1.00
24207;DHT22;12351;52.284;9.160;2023-06-10T14:49:27;28.10;1.00
24207;DHT22;12351;52.284;9.160;2023-06-10T14:52:15;28.10;1.00
24207;DHT22;12351;52.284;9.160;2023-06-10T14:55:05;28.30;1.00
24207;DHT22;12351;52.284;9.160;2023-06-10T14:57:53;28.50;1.00
24207;DHT22;12351;52.284;9.160;2023-06-10T15:00:41;28.40;1.00
24207;DHT22;12351;52.284;9.160;2023-06-10T15:03:29;28.50;1.00
24207;DHT22;12351;52.284;9.160;2023-06-10T15:06:19;28.70;1.00
24207;DHT22;12351;52.284;9.160;2023-06-10T15:09:09;28.60;1.00
24207;DHT22;12351;52.284;9.160;2023-06-10T15:11:59;28.70;1.00
24207;DHT22;12351;52.284;9.160;2023-06-10T15:14:45;28.80;1.00
24207;DHT22;12351;52.284;9.160;2023-06-10T15:17:32;28.60;1.00
24207;DHT22;12351;52.284;9.160;2023-06-10T15:20:22;28.70;1.00
24207;DHT22;12351;52.284;9.160;2023-06-10T15:23:08;28.80;1.00
24207;DHT22;12351;52.284;9.160;2023-06-10T15:25:58;28.90;1.00
24207;DHT22;12351;52.284;9.160;2023-06-10T15:28:46;28.90;1.00
24207;DHT22;12351;52.284;9.160;2023-06-10T15:31:33;28.80;1.00
24207;DHT22;12351;52.284;9.160;2023-06-10T15:34:23;28.80;1.00
24207;DHT22;12351;52.284;9.160;2023-06-10T15:37:13;28.80;1.00
24207;DHT22;12351;52.284;9.160;2023-06-10T15:39:59;28.90;1.00
24207;DHT22;12351;52.284;9.160;2023-06-10T15:42:48;29.00;1.00
24207;DHT22;12351;52.284;9.160;2023-06-10T15:45:36;28.90;1.00
24207;DHT22;12351;52.284;9.160;2023-06-10T15:48:25;29.10;1.00
24207;DHT22;12351;52.284;9.160;2023-06-10T15:51:13;29.20;1.00
24207;DHT22;12351;52.284;9.160;2023-06-10T15:54:02;29.30;1.00
24207;DHT22;12351;52.284;9.160;2023-06-10T15:56:49;29.40;1.00
24207;DHT22;12351;52.284;9.160;2023-06-10T15:59:37;29.50;1.00
24207;DHT22;12351;52.284;9.160;2023-06-10T16:02:30;29.20;1.00
24207;DHT22;12351;52.284;9.160;2023-06-10T16:05:16;29.20;1.00
24207;DHT22;12351;52.284;9.160;2023-06-10T16:08:05;29.40;1.00
24207;DHT22;12351;52.284;9.160;2023-06-10T16:10:54;29.40;1.00
24207;DHT22;12351;52.284;9.160;2023-06-10T16:13:44;29.40;1.00
24207;DHT22;12351;52.284;9.160;2023-06-10T16:16:33;29.30;1.00
24207;DHT22;12351;52.284;9.160;2023-06-10T16:19:20;29.20;1.00
24207;DHT22;12351;52.284;9.160;2023-06-10T16:22:08;29.20;1.00
24207;DHT22;12351;52.284;9.160;2023-06-10T16:24:58;29.30;1.00
24207;DHT22;12351;52.284;9.160;2023-06-10T16:27:46;29.30;1.00
24207;DHT22;12351;52.284;9.160;2023-06-10T16:30:36;29.50;1.00
24207;DHT22;12351;52.284;9.160;2023-06-10T16:33:24;29.60;1.00
24207;DHT22;12351;52.284;9.160;2023-06-10T16:36:14;29.20;1.00
24207;DHT22;12351;52.284;9.160;2023-06-10T16:39:03;29.30;1.00
24207;DHT22;12351;52.284;9.160;2023-06-10T16:41:53;29.50;1.00
24207;DHT22;12351;52.284;9.160;2023-06-10T16:44:42;29.40;1.00
24207;DHT22;12351;52.284;9.160;2023-06-10T16:47:35;29.40;1.00
24207;DHT22;12351;52.284;9.160;2023-06-10T16:50:24;29.40;1.00
24207;DHT22;12351;52.284;9.160;2023-06-10T16:53:14;29.30;1.00
24207;DHT22;12351;52.284;9.160;2023-06-10T16:56:08;29.40;1.00
24207;DHT22;12351;52.284;9.160;2023-06-10T16:58:58;29.40;1.00
24207;DHT22;12351;52.284;9.160;2023-06-10T17:01:48;29.30;1.00
24207;DHT22;12351;52.284;9.160;2023-06-10T17:04:36;29.10;1.00
24207;DHT22;12351;52.284;9.160;2023-06-10T17:07:28;29.10;1.00
24207;DHT22;12351;52.284;9.160;2023-06-10T17:10:15;29.10;1.00
24207;DHT22;12351;52.284;9.160;2023-06-10T17:13:03;29.30;1.00
24207;DHT22;12351;52.284;9.160;2023-06-10T17:15:50;29.20;1.00
24207;DHT22;12351;52.284;9.160;2023-06-10T17:18:39;29.20;1.00
24207;DHT22;12351;52.284;9.160;2023-06-10T17:21:26;29.20;1.00
24207;DHT22;12351;52.284;9.160;2023-06-10T17:24:14;29.40;1.00
24207;DHT22;12351;52.284;9.160;2023-06-10T17:27:01;29.40;1.00
24207;DHT22;12351;52.284;9.160;2023-06-10T17:29:50;29.30;1.00
24207;DHT22;12351;52.284;9.160;2023-06-10T17:32:37;29.30;1.00
24207;DHT22;12351;52.284;9.160;2023-06-10T17:35:25;29.30;1.00
24207;DHT22;12351;52.284;9.160;2023-06-10T17:38:13;29.30;1.00
24207;DHT22;12351;52.284;9.160;2023-06-10T17:41:04;29.30;1.00
24207;DHT22;12351;52.284;9.160;2023-06-10T17:43:55;29.20;1.00
24207;DHT22;12351;52.284;9.160;2023-06-10T17:46:45;29.30;1.00
24207;DHT22;12351;52.284;9.160;2023-06-10T17:49:37;29.20;1.00
24207;DHT22;12351;52.284;9.160;2023-06-10T17:52:25;29.30;1.00
24207;DHT22;12351;52.284;9.160;2023-06-10T17:55:15;29.40;1.00
24207;DHT22;12351;52.284;9.160;2023-06-10T17:58:07;29.50;1.00
24207;DHT22;12351;52.284;9.160;2023-06-10T18:00:55;29.40;1.00
24207;DHT22;12351;52.284;9.160;2023-06-10T18:03:46;28.80;1.00
24207;DHT22;12351;52.284;9.160;2023-06-10T18:06:36;28.20;1.00
24207;DHT22;12351;52.284;9.160;2023-06-10T18:09:26;28.00;1.00
24207;DHT22;12351;52.284;9.160;2023-06-10T18:12:14;27.70;1.00
24207;DHT22;12351;52.284;9.160;2023-06-10T18:15:07;27.60;1.00
24207;DHT22;12351;52.284;9.160;2023-06-10T18:17:56;27.60;1.00
24207;DHT22;12351;52.284;9.160;2023-06-10T18:20:48;27.00;1.00
24207;DHT22;12351;52.284;9.160;2023-06-10T18:23:38;27.00;1.00
24207;DHT22;12351;52.284;9.160;2023-06-10T18:26:25;26.80;1.00
24207;DHT22;12351;52.284;9.160;2023-06-10T18:29:18;27.00;1.00
24207;DHT22;12351;52.284;9.160;2023-06-10T18:32:05;26.90;1.00
24207;DHT22;12351;52.284;9.160;2023-06-10T18:34:58;27.20;1.00
24207;DHT22;12351;52.284;9.160;2023-06-10T18:37:49;27.10;1.00